Niederfeulen, Luxembourg
Current Conditions -  °F | °C
As of 5:50 PM on Tuesday 27 Jan 2015 (Local Time) from ELLX Reporting Station
Broken Clouds Broken Clouds  
Wind Chill: 29°   Ceiling: 3800
Heat Index: 36°   Visibility: 5mi
Dew Point: 36°   Wind: 8mph
Humidity: 100%   Direction: 270°W
Pressure: 30.21"   Gusts: NA
Location:  49.86°N, 6.05°E
Report Text: ELLX 271650Z 27007KT 240V320 8000 SCT033 BKN038 BKN047 02/02 Q1023 NOSIG
Loading
Personal Weather Stations






























Interactive Weather Map New forecast layout! Learn more

10-Day Weather Forecast

Advertisements
Track Severe Weather on mobile